sensor_id;sensor_type;location;lat;lon;timestamp;P1;durP1;ratioP1;P2;durP2;ratioP2
61460;SDS011;47325;50.506;4.472;2024-01-07T00:05:39;10.30;;;6.20;;
61460;SDS011;47325;50.506;4.472;2024-01-07T00:11:23;10.00;;;5.70;;
61460;SDS011;47325;50.506;4.472;2024-01-07T00:17:08;10.90;;;6.00;;
61460;SDS011;47325;50.506;4.472;2024-01-07T00:22:52;9.10;;;6.10;;
61460;SDS011;47325;50.506;4.472;2024-01-07T00:28:37;9.90;;;6.40;;
61460;SDS011;47325;50.506;4.472;2024-01-07T00:34:21;10.60;;;6.20;;
61460;SDS011;47325;50.506;4.472;2024-01-07T00:40:06;11.10;;;6.30;;
61460;SDS011;47325;50.506;4.472;2024-01-07T00:45:50;11.50;;;6.60;;
61460;SDS011;47325;50.506;4.472;2024-01-07T00:51:34;12.10;;;6.30;;
61460;SDS011;47325;50.506;4.472;2024-01-07T00:57:19;9.80;;;6.60;;
61460;SDS011;47325;50.506;4.472;2024-01-07T01:03:03;11.10;;;6.80;;
61460;SDS011;47325;50.506;4.472;2024-01-07T01:08:47;10.50;;;6.40;;
61460;SDS011;47325;50.506;4.472;2024-01-07T01:14:31;12.90;;;6.70;;
61460;SDS011;47325;50.506;4.472;2024-01-07T01:20:15;12.40;;;6.80;;
61460;SDS011;47325;50.506;4.472;2024-01-07T01:25:59;10.10;;;6.40;;
61460;SDS011;47325;50.506;4.472;2024-01-07T01:31:47;10.60;;;6.80;;
61460;SDS011;47325;50.506;4.472;2024-01-07T01:37:31;10.20;;;6.30;;
61460;SDS011;47325;50.506;4.472;2024-01-07T01:43:16;12.30;;;6.70;;
61460;SDS011;47325;50.506;4.472;2024-01-07T01:49:04;11.60;;;6.90;;
61460;SDS011;47325;50.506;4.472;2024-01-07T01:54:49;10.20;;;6.60;;
61460;SDS011;47325;50.506;4.472;2024-01-07T02:00:33;11.40;;;6.90;;
61460;SDS011;47325;50.506;4.472;2024-01-07T02:06:17;11.20;;;6.90;;
61460;SDS011;47325;50.506;4.472;2024-01-07T02:12:05;13.10;;;7.10;;
61460;SDS011;47325;50.506;4.472;2024-01-07T02:17:49;11.00;;;6.60;;
61460;SDS011;47325;50.506;4.472;2024-01-07T02:23:33;11.80;;;6.90;;
61460;SDS011;47325;50.506;4.472;2024-01-07T02:29:17;12.70;;;7.70;;
61460;SDS011;47325;50.506;4.472;2024-01-07T02:35:01;12.10;;;7.30;;
61460;SDS011;47325;50.506;4.472;2024-01-07T02:40:45;11.40;;;6.60;;
61460;SDS011;47325;50.506;4.472;2024-01-07T02:46:29;11.20;;;6.60;;
61460;SDS011;47325;50.506;4.472;2024-01-07T02:52:14;12.20;;;7.50;;
61460;SDS011;47325;50.506;4.472;2024-01-07T02:57:58;12.40;;;7.20;;
61460;SDS011;47325;50.506;4.472;2024-01-07T03:03:42;13.30;;;7.20;;
61460;SDS011;47325;50.506;4.472;2024-01-07T03:09:26;12.30;;;7.00;;
61460;SDS011;47325;50.506;4.472;2024-01-07T03:15:10;11.70;;;7.30;;
61460;SDS011;47325;50.506;4.472;2024-01-07T03:20:54;12.70;;;7.10;;
61460;SDS011;47325;50.506;4.472;2024-01-07T03:26:38;11.30;;;7.20;;
61460;SDS011;47325;50.506;4.472;2024-01-07T03:32:26;12.80;;;7.40;;
61460;SDS011;47325;50.506;4.472;2024-01-07T03:38:11;12.60;;;7.50;;
61460;SDS011;47325;50.506;4.472;2024-01-07T03:43:56;12.90;;;7.90;;
61460;SDS011;47325;50.506;4.472;2024-01-07T03:49:40;12.60;;;7.70;;
61460;SDS011;47325;50.506;4.472;2024-01-07T03:55:24;12.20;;;7.60;;
61460;SDS011;47325;50.506;4.472;2024-01-07T04:01:08;12.00;;;7.40;;
61460;SDS011;47325;50.506;4.472;2024-01-07T04:06:52;12.70;;;7.50;;
61460;SDS011;47325;50.506;4.472;2024-01-07T04:12:36;12.50;;;7.30;;
61460;SDS011;47325;50.506;4.472;2024-01-07T04:18:22;11.70;;;7.40;;
61460;SDS011;47325;50.506;4.472;2024-01-07T04:24:07;13.70;;;7.80;;
61460;SDS011;47325;50.506;4.472;2024-01-07T04:29:51;11.70;;;7.50;;
61460;SDS011;47325;50.506;4.472;2024-01-07T04:35:35;12.80;;;7.50;;
61460;SDS011;47325;50.506;4.472;2024-01-07T04:41:19;12.30;;;7.50;;
61460;SDS011;47325;50.506;4.472;2024-01-07T04:47:04;12.30;;;7.70;;
61460;SDS011;47325;50.506;4.472;2024-01-07T04:52:48;13.40;;;8.00;;
61460;SDS011;47325;50.506;4.472;2024-01-07T04:58:32;14.70;;;8.00;;
61460;SDS011;47325;50.506;4.472;2024-01-07T05:04:16;13.70;;;8.00;;
61460;SDS011;47325;50.506;4.472;2024-01-07T05:10:00;15.30;;;8.50;;
61460;SDS011;47325;50.506;4.472;2024-01-07T05:15:44;14.80;;;8.20;;
61460;SDS011;47325;50.506;4.472;2024-01-07T05:21:29;15.60;;;8.40;;
61460;SDS011;47325;50.506;4.472;2024-01-07T05:27:13;15.80;;;9.30;;
61460;SDS011;47325;50.506;4.472;2024-01-07T05:32:59;15.90;;;8.90;;
61460;SDS011;47325;50.506;4.472;2024-01-07T05:38:48;16.00;;;8.80;;
61460;SDS011;47325;50.506;4.472;2024-01-07T05:44:33;20.30;;;9.80;;
61460;SDS011;47325;50.506;4.472;2024-01-07T05:50:18;17.20;;;9.10;;
61460;SDS011;47325;50.506;4.472;2024-01-07T05:56:03;17.40;;;9.70;;
61460;SDS011;47325;50.506;4.472;2024-01-07T06:01:47;17.70;;;10.20;;
61460;SDS011;47325;50.506;4.472;2024-01-07T06:07:31;18.40;;;9.90;;
61460;SDS011;47325;50.506;4.472;2024-01-07T06:13:16;18.80;;;10.20;;
61460;SDS011;47325;50.506;4.472;2024-01-07T06:19:00;18.60;;;9.50;;
61460;SDS011;47325;50.506;4.472;2024-01-07T06:24:46;19.20;;;9.90;;
61460;SDS011;47325;50.506;4.472;2024-01-07T06:30:30;19.20;;;10.00;;
61460;SDS011;47325;50.506;4.472;2024-01-07T06:36:14;21.10;;;10.40;;
61460;SDS011;47325;50.506;4.472;2024-01-07T06:41:58;20.30;;;10.40;;
61460;SDS011;47325;50.506;4.472;2024-01-07T06:47:42;21.70;;;10.60;;
61460;SDS011;47325;50.506;4.472;2024-01-07T06:53:26;21.40;;;10.70;;
61460;SDS011;47325;50.506;4.472;2024-01-07T06:59:10;23.60;;;10.90;;
61460;SDS011;47325;50.506;4.472;2024-01-07T07:04:55;19.60;;;10.70;;
61460;SDS011;47325;50.506;4.472;2024-01-07T07:10:39;20.50;;;10.50;;
61460;SDS011;47325;50.506;4.472;2024-01-07T07:16:23;22.00;;;10.80;;
61460;SDS011;47325;50.506;4.472;2024-01-07T07:22:07;20.50;;;10.30;;
61460;SDS011;47325;50.506;4.472;2024-01-07T07:27:52;20.20;;;10.70;;
61460;SDS011;47325;50.506;4.472;2024-01-07T07:33:38;23.20;;;11.10;;
61460;SDS011;47325;50.506;4.472;2024-01-07T07:39:25;20.60;;;10.40;;
61460;SDS011;47325;50.506;4.472;2024-01-07T07:45:10;20.60;;;10.20;;
61460;SDS011;47325;50.506;4.472;2024-01-07T07:50:54;21.60;;;10.30;;
61460;SDS011;47325;50.506;4.472;2024-01-07T07:56:38;21.40;;;10.90;;
61460;SDS011;47325;50.506;4.472;2024-01-07T08:02:22;18.20;;;9.90;;
61460;SDS011;47325;50.506;4.472;2024-01-07T08:08:06;19.00;;;9.40;;
61460;SDS011;47325;50.506;4.472;2024-01-07T08:13:50;19.30;;;9.70;;
61460;SDS011;47325;50.506;4.472;2024-01-07T08:19:35;18.40;;;10.00;;
61460;SDS011;47325;50.506;4.472;2024-01-07T08:25:20;18.40;;;10.00;;
61460;SDS011;47325;50.506;4.472;2024-01-07T08:31:04;19.70;;;10.20;;
61460;SDS011;47325;50.506;4.472;2024-01-07T08:36:49;20.30;;;9.50;;
61460;SDS011;47325;50.506;4.472;2024-01-07T08:42:35;19.80;;;10.00;;
61460;SDS011;47325;50.506;4.472;2024-01-07T08:48:19;18.80;;;9.50;;
61460;SDS011;47325;50.506;4.472;2024-01-07T08:54:03;21.60;;;10.10;;
61460;SDS011;47325;50.506;4.472;2024-01-07T08:59:48;21.70;;;10.00;;
61460;SDS011;47325;50.506;4.472;2024-01-07T09:05:32;23.30;;;10.60;;
61460;SDS011;47325;50.506;4.472;2024-01-07T09:11:18;21.80;;;10.30;;
61460;SDS011;47325;50.506;4.472;2024-01-07T09:17:02;21.90;;;10.10;;
61460;SDS011;47325;50.506;4.472;2024-01-07T09:22:46;24.30;;;10.60;;
61460;SDS011;47325;50.506;4.472;2024-01-07T09:28:30;21.20;;;10.10;;
61460;SDS011;47325;50.506;4.472;2024-01-07T09:34:14;21.60;;;10.10;;
61460;SDS011;47325;50.506;4.472;2024-01-07T09:39:58;21.50;;;10.30;;
61460;SDS011;47325;50.506;4.472;2024-01-07T09:45:44;22.70;;;10.60;;
61460;SDS011;47325;50.506;4.472;2024-01-07T09:51:30;22.40;;;10.40;;
61460;SDS011;47325;50.506;4.472;2024-01-07T09:57:19;21.70;;;10.80;;
61460;SDS011;47325;50.506;4.472;2024-01-07T10:03:03;20.40;;;9.70;;
61460;SDS011;47325;50.506;4.472;2024-01-07T10:08:47;18.60;;;10.00;;
61460;SDS011;47325;50.506;4.472;2024-01-07T10:14:31;19.50;;;9.80;;
61460;SDS011;47325;50.506;4.472;2024-01-07T10:20:16;19.70;;;9.80;;
61460;SDS011;47325;50.506;4.472;2024-01-07T10:26:01;19.80;;;9.60;;
61460;SDS011;47325;50.506;4.472;2024-01-07T10:32:06;18.50;;;9.60;;
61460;SDS011;47325;50.506;4.472;2024-01-07T10:37:50;18.40;;;9.50;;
61460;SDS011;47325;50.506;4.472;2024-01-07T10:43:35;16.70;;;9.60;;
61460;SDS011;47325;50.506;4.472;2024-01-07T10:49:21;17.70;;;9.50;;
61460;SDS011;47325;50.506;4.472;2024-01-07T10:55:08;15.40;;;8.90;;
61460;SDS011;47325;50.506;4.472;2024-01-07T11:00:53;17.20;;;9.10;;
61460;SDS011;47325;50.506;4.472;2024-01-07T11:06:41;16.80;;;9.60;;
61460;SDS011;47325;50.506;4.472;2024-01-07T11:12:27;16.80;;;8.80;;
61460;SDS011;47325;50.506;4.472;2024-01-07T11:18:11;17.50;;;9.60;;
61460;SDS011;47325;50.506;4.472;2024-01-07T11:24:01;15.70;;;8.60;;
61460;SDS011;47325;50.506;4.472;2024-01-07T11:29:52;14.60;;;8.70;;
61460;SDS011;47325;50.506;4.472;2024-01-07T11:41:29;15.70;;;9.10;;
61460;SDS011;47325;50.506;4.472;2024-01-07T11:47:15;15.60;;;8.70;;
61460;SDS011;47325;50.506;4.472;2024-01-07T11:53:00;14.80;;;8.50;;
61460;SDS011;47325;50.506;4.472;2024-01-07T11:58:44;13.90;;;8.00;;
61460;SDS011;47325;50.506;4.472;2024-01-07T12:04:28;14.10;;;8.40;;
61460;SDS011;47325;50.506;4.472;2024-01-07T12:10:13;14.00;;;8.70;;
61460;SDS011;47325;50.506;4.472;2024-01-07T12:15:58;14.40;;;8.20;;
61460;SDS011;47325;50.506;4.472;2024-01-07T12:21:42;13.10;;;8.10;;
61460;SDS011;47325;50.506;4.472;2024-01-07T12:27:27;13.10;;;8.30;;
61460;SDS011;47325;50.506;4.472;2024-01-07T12:33:15;15.40;;;9.00;;
61460;SDS011;47325;50.506;4.472;2024-01-07T12:39:00;16.90;;;8.90;;
61460;SDS011;47325;50.506;4.472;2024-01-07T12:44:44;16.40;;;9.40;;
61460;SDS011;47325;50.506;4.472;2024-01-07T12:50:28;20.50;;;9.40;;
61460;SDS011;47325;50.506;4.472;2024-01-07T12:56:12;21.30;;;10.50;;
61460;SDS011;47325;50.506;4.472;2024-01-07T13:01:56;24.10;;;11.50;;
61460;SDS011;47325;50.506;4.472;2024-01-07T13:07:41;25.60;;;12.80;;
61460;SDS011;47325;50.506;4.472;2024-01-07T13:13:25;29.50;;;14.50;;
61460;SDS011;47325;50.506;4.472;2024-01-07T13:19:09;28.90;;;14.10;;
61460;SDS011;47325;50.506;4.472;2024-01-07T13:24:54;21.90;;;12.00;;
61460;SDS011;47325;50.506;4.472;2024-01-07T13:30:39;24.10;;;12.90;;
61460;SDS011;47325;50.506;4.472;2024-01-07T13:36:24;22.10;;;12.10;;
61460;SDS011;47325;50.506;4.472;2024-01-07T13:42:08;25.50;;;11.90;;
61460;SDS011;47325;50.506;4.472;2024-01-07T13:47:52;22.50;;;12.00;;
61460;SDS011;47325;50.506;4.472;2024-01-07T13:53:37;21.00;;;11.10;;
61460;SDS011;47325;50.506;4.472;2024-01-07T13:59:21;21.00;;;10.80;;
61460;SDS011;47325;50.506;4.472;2024-01-07T14:05:08;20.50;;;10.50;;
61460;SDS011;47325;50.506;4.472;2024-01-07T14:10:54;19.50;;;10.40;;
61460;SDS011;47325;50.506;4.472;2024-01-07T14:16:39;17.40;;;10.50;;
61460;SDS011;47325;50.506;4.472;2024-01-07T14:22:24;20.00;;;10.60;;
61460;SDS011;47325;50.506;4.472;2024-01-07T14:28:08;18.90;;;10.10;;
61460;SDS011;47325;50.506;4.472;2024-01-07T14:33:54;18.10;;;10.20;;
61460;SDS011;47325;50.506;4.472;2024-01-07T14:39:38;15.50;;;9.80;;
61460;SDS011;47325;50.506;4.472;2024-01-07T14:45:23;16.30;;;9.90;;
61460;SDS011;47325;50.506;4.472;2024-01-07T14:51:10;18.40;;;10.70;;
61460;SDS011;47325;50.506;4.472;2024-01-07T14:56:56;15.60;;;10.10;;
61460;SDS011;47325;50.506;4.472;2024-01-07T15:02:41;18.50;;;10.70;;
61460;SDS011;47325;50.506;4.472;2024-01-07T15:08:25;15.50;;;9.80;;
61460;SDS011;47325;50.506;4.472;2024-01-07T15:14:09;16.70;;;10.60;;
61460;SDS011;47325;50.506;4.472;2024-01-07T15:19:53;17.70;;;10.50;;
61460;SDS011;47325;50.506;4.472;2024-01-07T15:25:37;15.80;;;10.00;;
61460;SDS011;47325;50.506;4.472;2024-01-07T15:31:21;15.20;;;9.80;;
61460;SDS011;47325;50.506;4.472;2024-01-07T15:37:06;15.00;;;9.90;;
61460;SDS011;47325;50.506;4.472;2024-01-07T15:42:50;15.60;;;9.50;;
61460;SDS011;47325;50.506;4.472;2024-01-07T15:48:35;14.50;;;9.00;;
61460;SDS011;47325;50.506;4.472;2024-01-07T15:54:21;15.90;;;9.80;;
61460;SDS011;47325;50.506;4.472;2024-01-07T16:00:05;14.20;;;8.80;;
61460;SDS011;47325;50.506;4.472;2024-01-07T16:05:49;15.40;;;9.10;;
61460;SDS011;47325;50.506;4.472;2024-01-07T16:11:34;14.20;;;8.70;;
61460;SDS011;47325;50.506;4.472;2024-01-07T16:17:18;12.50;;;8.80;;
61460;SDS011;47325;50.506;4.472;2024-01-07T16:23:02;14.20;;;9.20;;
61460;SDS011;47325;50.506;4.472;2024-01-07T16:28:48;12.40;;;8.10;;
61460;SDS011;47325;50.506;4.472;2024-01-07T16:34:32;13.30;;;8.60;;
61460;SDS011;47325;50.506;4.472;2024-01-07T16:40:17;13.60;;;8.70;;
61460;SDS011;47325;50.506;4.472;2024-01-07T16:46:02;15.00;;;8.50;;
61460;SDS011;47325;50.506;4.472;2024-01-07T16:51:48;12.70;;;8.30;;
61460;SDS011;47325;50.506;4.472;2024-01-07T16:57:42;12.40;;;8.10;;
61460;SDS011;47325;50.506;4.472;2024-01-07T17:03:26;13.40;;;8.40;;
61460;SDS011;47325;50.506;4.472;2024-01-07T17:09:11;12.30;;;7.90;;
61460;SDS011;47325;50.506;4.472;2024-01-07T17:14:56;11.90;;;8.10;;
61460;SDS011;47325;50.506;4.472;2024-01-07T17:20:40;10.10;;;7.70;;
61460;SDS011;47325;50.506;4.472;2024-01-07T17:26:24;11.20;;;7.80;;
61460;SDS011;47325;50.506;4.472;2024-01-07T17:32:09;11.00;;;7.60;;
61460;SDS011;47325;50.506;4.472;2024-01-07T17:37:54;11.20;;;7.80;;
61460;SDS011;47325;50.506;4.472;2024-01-07T17:43:38;10.40;;;6.90;;
61460;SDS011;47325;50.506;4.472;2024-01-07T17:49:22;9.30;;;6.80;;
61460;SDS011;47325;50.506;4.472;2024-01-07T17:55:07;9.70;;;6.80;;
61460;SDS011;47325;50.506;4.472;2024-01-07T18:00:51;9.60;;;6.70;;
61460;SDS011;47325;50.506;4.472;2024-01-07T18:06:35;9.20;;;5.90;;
61460;SDS011;47325;50.506;4.472;2024-01-07T18:12:19;8.60;;;6.20;;
61460;SDS011;47325;50.506;4.472;2024-01-07T18:18:03;7.90;;;6.10;;
61460;SDS011;47325;50.506;4.472;2024-01-07T18:23:48;7.90;;;5.80;;
61460;SDS011;47325;50.506;4.472;2024-01-07T18:29:33;8.20;;;5.90;;
61460;SDS011;47325;50.506;4.472;2024-01-07T18:35:17;9.60;;;5.80;;
61460;SDS011;47325;50.506;4.472;2024-01-07T18:41:02;7.60;;;5.50;;
61460;SDS011;47325;50.506;4.472;2024-01-07T18:46:46;8.40;;;5.40;;
61460;SDS011;47325;50.506;4.472;2024-01-07T18:52:31;6.60;;;5.50;;
61460;SDS011;47325;50.506;4.472;2024-01-07T18:58:14;9.80;;;5.00;;
61460;SDS011;47325;50.506;4.472;2024-01-07T19:03:58;7.10;;;5.10;;
61460;SDS011;47325;50.506;4.472;2024-01-07T19:09:43;6.50;;;5.00;;
61460;SDS011;47325;50.506;4.472;2024-01-07T19:15:27;6.40;;;4.80;;
61460;SDS011;47325;50.506;4.472;2024-01-07T19:21:17;6.30;;;4.70;;
61460;SDS011;47325;50.506;4.472;2024-01-07T19:27:01;13.50;;;6.70;;
61460;SDS011;47325;50.506;4.472;2024-01-07T19:32:45;82.00;;;28.50;;
61460;SDS011;47325;50.506;4.472;2024-01-07T19:38:30;40.20;;;13.50;;
61460;SDS011;47325;50.506;4.472;2024-01-07T19:44:15;33.10;;;11.90;;
61460;SDS011;47325;50.506;4.472;2024-01-07T19:50:03;29.30;;;11.00;;
61460;SDS011;47325;50.506;4.472;2024-01-07T19:55:48;26.30;;;9.70;;
61460;SDS011;47325;50.506;4.472;2024-01-07T20:01:32;22.90;;;9.30;;
61460;SDS011;47325;50.506;4.472;2024-01-07T20:07:16;21.90;;;8.80;;
61460;SDS011;47325;50.506;4.472;2024-01-07T20:13:00;23.70;;;8.70;;
61460;SDS011;47325;50.506;4.472;2024-01-07T20:18:45;23.20;;;8.10;;
61460;SDS011;47325;50.506;4.472;2024-01-07T20:24:35;18.20;;;7.50;;
61460;SDS011;47325;50.506;4.472;2024-01-07T20:30:19;17.40;;;7.40;;
61460;SDS011;47325;50.506;4.472;2024-01-07T20:36:04;16.00;;;7.00;;
61460;SDS011;47325;50.506;4.472;2024-01-07T20:41:48;17.40;;;7.40;;
61460;SDS011;47325;50.506;4.472;2024-01-07T20:47:33;14.20;;;6.30;;
61460;SDS011;47325;50.506;4.472;2024-01-07T20:53:18;12.70;;;6.20;;
61460;SDS011;47325;50.506;4.472;2024-01-07T20:59:03;12.60;;;6.20;;
61460;SDS011;47325;50.506;4.472;2024-01-07T21:04:47;13.00;;;5.70;;
61460;SDS011;47325;50.506;4.472;2024-01-07T21:10:32;12.10;;;5.30;;
61460;SDS011;47325;50.506;4.472;2024-01-07T21:16:17;8.60;;;4.60;;
61460;SDS011;47325;50.506;4.472;2024-01-07T21:22:02;10.10;;;4.80;;
61460;SDS011;47325;50.506;4.472;2024-01-07T21:27:46;8.10;;;4.40;;
61460;SDS011;47325;50.506;4.472;2024-01-07T21:33:30;9.10;;;4.00;;
61460;SDS011;47325;50.506;4.472;2024-01-07T21:39:16;5.90;;;3.70;;
61460;SDS011;47325;50.506;4.472;2024-01-07T21:45:26;7.20;;;4.00;;
61460;SDS011;47325;50.506;4.472;2024-01-07T21:51:10;7.20;;;3.90;;
61460;SDS011;47325;50.506;4.472;2024-01-07T21:56:55;7.30;;;3.60;;
61460;SDS011;47325;50.506;4.472;2024-01-07T22:02:40;6.50;;;3.60;;
61460;SDS011;47325;50.506;4.472;2024-01-07T22:08:25;6.80;;;3.40;;
61460;SDS011;47325;50.506;4.472;2024-01-07T22:14:09;4.00;;;3.00;;
61460;SDS011;47325;50.506;4.472;2024-01-07T22:19:53;4.30;;;3.20;;
61460;SDS011;47325;50.506;4.472;2024-01-07T22:25:38;6.00;;;3.30;;
61460;SDS011;47325;50.506;4.472;2024-01-07T22:31:27;5.40;;;3.30;;
61460;SDS011;47325;50.506;4.472;2024-01-07T22:37:15;6.20;;;3.40;;
61460;SDS011;47325;50.506;4.472;2024-01-07T22:42:59;7.80;;;3.60;;
61460;SDS011;47325;50.506;4.472;2024-01-07T22:48:43;6.50;;;3.60;;
61460;SDS011;47325;50.506;4.472;2024-01-07T22:54:27;5.00;;;3.20;;
61460;SDS011;47325;50.506;4.472;2024-01-07T23:00:12;7.10;;;3.20;;
61460;SDS011;47325;50.506;4.472;2024-01-07T23:05:56;4.90;;;3.20;;
61460;SDS011;47325;50.506;4.472;2024-01-07T23:11:41;5.80;;;3.10;;
61460;SDS011;47325;50.506;4.472;2024-01-07T23:17:26;5.90;;;3.60;;
61460;SDS011;47325;50.506;4.472;2024-01-07T23:23:11;6.10;;;3.20;;
61460;SDS011;47325;50.506;4.472;2024-01-07T23:28:56;6.20;;;3.60;;
61460;SDS011;47325;50.506;4.472;2024-01-07T23:34:41;6.40;;;3.60;;
61460;SDS011;47325;50.506;4.472;2024-01-07T23:40:26;6.50;;;3.80;;
61460;SDS011;47325;50.506;4.472;2024-01-07T23:46:11;6.60;;;3.50;;
61460;SDS011;47325;50.506;4.472;2024-01-07T23:51:56;5.70;;;3.70;;
61460;SDS011;47325;50.506;4.472;2024-01-07T23:57:40;5.80;;;3.80;;
